Time;durP1;ratioP1;P1;durP2;ratioP2;P2;SDS_P1;SDS_P2;PMS_P1;PMS_P2;Temp;Humidity;BMP_temperature;BMP_pressure;BME280_temperature;BME280_humidity;BME280_pressure;Samples;Min_cycle;Max_cycle;Signal;HPM_P1;HPM_P2
2023/09/26 00:01:32;;;;;;;6.88;4.97;;;;;;;15.45;100.00;102259.66;4951492;28;20058;-79
2023/09/26 00:04:00;;;;;;;6.10;5.50;;;;;;;15.44;100.00;102268.47;4886319;28;21141;-79
2023/09/26 00:06:28;;;;;;;6.13;5.20;;;;;;;15.43;100.00;102260.53;4899402;29;20789;-79
2023/09/26 00:08:55;;;;;;;6.72;4.60;;;;;;;15.43;100.00;102257.88;4941262;28;20051;-79
2023/09/26 00:11:24;;;;;;;5.32;4.90;;;;;;;15.42;100.00;102256.97;4949564;28;20044;-78
2023/09/26 00:13:52;;;;;;;8.35;5.40;;;;;;;15.42;100.00;102259.63;4919266;29;20055;-78
2023/09/26 00:16:19;;;;;;;5.55;5.00;;;;;;;15.41;100.00;102257.84;4934446;29;20050;-78
2023/09/26 00:18:47;;;;;;;5.30;4.80;;;;;;;15.40;100.00;102267.56;4923487;28;20051;-78
2023/09/26 00:21:14;;;;;;;7.30;5.45;;;;;;;15.40;100.00;102266.69;4905675;29;20077;-78
2023/09/26 00:23:42;;;;;;;6.03;5.35;;;;;;;15.38;100.00;102271.09;4918127;29;20269;-78
2023/09/26 00:26:11;;;;;;;12.00;6.00;;;;;;;15.36;100.00;102273.75;4964130;28;20058;-78
2023/09/26 00:28:43;;;;;;;9.57;5.43;;;;;;;15.33;100.00;102280.81;4938909;28;20047;-78
2023/09/26 00:31:11;;;;;;;7.40;6.55;;;;;;;15.32;100.00;102273.72;4944736;29;20055;-78
2023/09/26 00:33:38;;;;;;;8.40;5.72;;;;;;;15.31;100.00;102274.59;4951751;28;20062;-81
2023/09/26 00:36:07;;;;;;;6.13;5.50;;;;;;;15.28;100.00;102266.63;4909283;29;20039;-79
2023/09/26 00:38:35;;;;;;;7.78;6.18;;;;;;;15.26;100.00;102273.72;4950127;28;20063;-78
2023/09/26 00:41:03;;;;;;;6.45;5.82;;;;;;;15.25;100.00;102277.22;4939563;28;20460;-78
2023/09/26 00:43:31;;;;;;;8.02;5.47;;;;;;;15.24;100.00;102281.66;4937714;28;20059;-80
2023/09/26 00:46:00;;;;;;;9.10;5.93;;;;;;;15.24;100.00;102275.47;4933376;28;20043;-80
2023/09/26 00:48:28;;;;;;;10.00;5.97;;;;;;;15.23;100.00;102268.34;4947153;28;20541;-78
2023/09/26 00:50:57;;;;;;;10.65;5.55;;;;;;;15.21;100.00;102258.59;4907032;28;20053;-80
2023/09/26 00:53:26;;;;;;;8.15;6.13;;;;;;;15.22;100.00;102264.81;4932526;29;20047;-78
2023/09/26 00:55:55;;;;;;;7.18;5.63;;;;;;;15.20;100.00;102255.97;4925230;29;20063;-78
2023/09/26 00:58:23;;;;;;;7.28;5.47;;;;;;;15.17;100.00;102259.47;4906858;29;20539;-78
2023/09/26 01:00:55;;;;;;;6.72;5.53;;;;;;;15.17;100.00;102254.16;4895446;29;20052;-78
2023/09/26 01:03:22;;;;;;;9.57;6.32;;;;;;;15.18;100.00;102252.41;4944206;28;20048;-78
2023/09/26 01:05:50;;;;;;;5.65;5.15;;;;;;;15.17;100.00;102253.28;4870219;29;20056;-78
2023/09/26 01:08:19;;;;;;;6.93;5.32;;;;;;;15.15;100.00;102258.56;4899967;29;20074;-78
2023/09/26 01:10:46;;;;;;;6.30;5.53;;;;;;;15.15;100.00;102266.53;4919005;29;20048;-78
2023/09/26 01:13:14;;;;;;;5.93;5.43;;;;;;;15.15;100.00;102261.22;4915950;29;20073;-78
2023/09/26 01:15:43;;;;;;;8.55;6.40;;;;;;;15.13;100.00;102257.69;4912538;29;20044;-79
2023/09/26 01:18:13;;;;;;;6.68;6.03;;;;;;;15.14;100.00;102262.13;4914339;29;20546;-78
2023/09/26 01:20:45;;;;;;;6.85;5.30;;;;;;;15.14;100.00;102270.09;4886427;29;20055;-78
2023/09/26 01:23:14;;;;;;;6.65;5.40;;;;;;;15.15;100.00;102276.28;4924868;29;20043;-78
2023/09/26 01:25:43;;;;;;;7.93;5.00;;;;;;;15.14;100.00;102274.47;4911169;29;20055;-80
2023/09/26 01:28:14;;;;;;;7.00;5.10;;;;;;;15.13;100.00;102263.00;4927124;29;20593;-78
2023/09/26 01:30:42;;;;;;;6.13;5.53;;;;;;;15.12;100.00;102255.91;4920784;29;20043;-78
2023/09/26 01:33:16;;;;;;;9.27;5.25;;;;;;;15.11;100.00;102259.44;4919886;29;20067;-78
2023/09/26 01:35:43;;;;;;;9.75;5.70;;;;;;;15.09;100.00;102252.34;4931311;29;20055;-78
2023/09/26 01:38:11;;;;;;;6.97;5.43;;;;;;;15.07;100.00;102246.16;4870473;29;20039;-80
2023/09/26 01:40:40;;;;;;;9.90;5.65;;;;;;;15.07;100.00;102241.72;4899903;29;20058;-80
2023/09/26 01:43:08;;;;;;;9.50;5.72;;;;;;;15.04;100.00;102233.72;4915892;29;20078;-78
2023/09/26 01:45:36;;;;;;;6.50;5.07;;;;;;;15.01;100.00;102236.38;4912031;29;20061;-80
2023/09/26 01:48:09;;;;;;;10.55;5.60;;;;;;;14.97;100.00;102237.19;4919541;29;20039;-80
2023/09/26 01:50:38;;;;;;;7.47;5.47;;;;;;;14.93;100.00;102238.97;4926131;29;20055;-80
2023/09/26 01:53:08;;;;;;;6.97;5.85;;;;;;;14.89;100.00;102237.16;4894108;29;20027;-80
2023/09/26 01:55:39;;;;;;;7.22;5.82;;;;;;;14.85;100.00;102240.66;4922933;29;20052;-80
2023/09/26 01:58:06;;;;;;;6.57;5.82;;;;;;;14.82;100.00;102236.22;4920789;29;20048;-79
2023/09/26 02:00:34;;;;;;;6.80;5.60;;;;;;;14.80;100.00;102232.69;4895070;29;20052;-79
2023/09/26 02:03:02;;;;;;;8.35;5.90;;;;;;;14.79;100.00;102237.97;4919564;29;20052;-80
2023/09/26 02:05:29;;;;;;;7.00;6.05;;;;;;;14.77;100.00;102231.75;4916568;29;20043;-79
2023/09/26 02:07:57;;;;;;;7.40;5.00;;;;;;;14.74;100.00;102239.69;4875987;29;20056;-79
2023/09/26 02:10:24;;;;;;;10.30;6.30;;;;;;;14.70;100.00;102233.47;4957608;28;20058;-79
2023/09/26 02:12:52;;;;;;;10.77;6.18;;;;;;;14.67;100.00;102236.09;4921671;29;20055;-80
2023/09/26 02:15:19;;;;;;;6.45;5.78;;;;;;;14.65;100.00;102244.91;4946901;29;20043;-79
2023/09/26 02:17:47;;;;;;;10.15;6.40;;;;;;;14.62;100.00;102253.75;4868921;29;20079;-80
2023/09/26 02:20:19;;;;;;;8.52;5.90;;;;;;;14.61;100.00;102251.94;4916345;29;20048;-79
2023/09/26 02:22:51;;;;;;;8.35;5.60;;;;;;;14.59;100.00;102254.63;4906096;29;20051;-79
2023/09/26 02:25:20;;;;;;;12.75;6.25;;;;;;;14.58;100.00;102249.28;4935124;29;20521;-79
2023/09/26 02:27:48;;;;;;;9.80;6.68;;;;;;;14.56;100.00;102240.41;4920784;29;20047;-79
2023/09/26 02:30:18;;;;;;;10.32;6.70;;;;;;;14.54;100.00;102234.19;4914154;29;20043;-79
2023/09/26 02:32:46;;;;;;;6.60;6.00;;;;;;;14.52;100.00;102246.56;4918758;29;20059;-79
2023/09/26 02:35:15;;;;;;;7.75;6.38;;;;;;;14.50;100.00;102245.63;4914599;29;20600;-78
2023/09/26 02:37:44;;;;;;;6.78;6.10;;;;;;;14.50;100.00;102248.28;4896976;29;20522;-78
2023/09/26 02:40:12;;;;;;;8.10;6.20;;;;;;;14.49;100.00;102246.50;4912455;29;20755;-78
2023/09/26 02:42:44;;;;;;;8.35;6.85;;;;;;;14.47;100.00;102238.53;4904881;29;20052;-78
2023/09/26 02:45:13;;;;;;;7.68;6.00;;;;;;;14.45;100.00;102235.00;4943317;29;20044;-80
2023/09/26 02:47:43;;;;;;;8.48;5.97;;;;;;;14.42;100.00;102240.25;4936771;28;20055;-78
2023/09/26 02:50:12;;;;;;;11.00;6.40;;;;;;;14.40;100.00;102234.97;4930109;29;20048;-78
2023/09/26 02:52:41;;;;;;;7.28;6.28;;;;;;;14.39;100.00;102226.97;4915194;29;20059;-78
2023/09/26 02:55:10;;;;;;;9.27;6.72;;;;;;;14.37;100.00;102223.44;4894091;29;20043;-78
2023/09/26 02:57:38;;;;;;;7.78;6.97;;;;;;;14.32;100.00;102212.75;4910993;29;20051;-78
2023/09/26 03:00:16;;;;;;;8.07;6.68;;;;;;;14.29;100.00;102214.50;4944587;29;20051;-78
2023/09/26 03:02:46;;;;;;;10.40;6.63;;;;;;;14.27;100.00;102221.53;4913936;29;20044;-78
2023/09/26 03:05:16;;;;;;;9.55;6.60;;;;;;;14.23;100.00;102216.22;4915240;29;20145;-78
2023/09/26 03:07:44;;;;;;;7.53;6.78;;;;;;;14.24;100.00;102230.38;4912108;29;20055;-78
2023/09/26 03:10:13;;;;;;;7.30;6.60;;;;;;;14.23;100.00;102223.28;4910385;28;20063;-78
2023/09/26 03:12:46;;;;;;;8.30;6.57;;;;;;;14.23;100.00;102215.31;4901146;29;20435;-78
2023/09/26 03:15:14;;;;;;;10.90;8.77;;;;;;;14.22;100.00;102218.88;4940333;28;20052;-78
2023/09/26 03:17:42;;;;;;;11.00;8.18;;;;;;;14.20;100.00;102205.59;4903267;29;20059;-78
2023/09/26 03:20:14;;;;;;;7.82;6.38;;;;;;;14.17;100.00;102202.00;4897567;29;20055;-78
2023/09/26 03:22:42;;;;;;;8.90;6.53;;;;;;;14.13;100.00;102200.22;4909607;29;20067;-78
2023/09/26 03:25:10;;;;;;;9.40;6.35;;;;;;;14.09;100.00;102209.00;4889023;29;20060;-78
2023/09/26 03:27:37;;;;;;;6.57;5.97;;;;;;;14.04;100.00;102211.59;4935445;29;20047;-79
2023/09/26 03:30:08;;;;;;;15.50;7.05;;;;;;;13.98;100.00;102217.72;4917435;29;20044;-79
2023/09/26 03:32:35;;;;;;;7.10;6.40;;;;;;;13.93;100.00;102206.19;4913856;29;20052;-79
2023/09/26 03:35:04;;;;;;;9.63;6.75;;;;;;;13.89;100.00;102201.72;4899184;29;20051;-79
2023/09/26 03:37:33;;;;;;;7.53;6.75;;;;;;;13.83;100.00;102199.00;4922642;29;20048;-80
2023/09/26 03:40:00;;;;;;;13.00;7.20;;;;;;;13.79;100.00;102205.16;4934590;29;20051;-79
2023/09/26 03:42:27;;;;;;;8.23;6.00;;;;;;;13.76;100.00;102199.78;4882119;29;20055;-79
2023/09/26 03:44:55;;;;;;;8.40;6.88;;;;;;;13.72;100.00;102211.22;4907117;29;20055;-79
2023/09/26 03:47:22;;;;;;;7.65;6.93;;;;;;;13.67;100.00;102195.31;4912400;29;20056;-79
2023/09/26 03:49:52;;;;;;;9.38;7.32;;;;;;;13.63;100.00;102194.38;4894791;29;20360;-78
2023/09/26 03:52:20;;;;;;;7.85;7.13;;;;;;;13.59;100.00;102192.56;4943962;29;20063;-79
2023/09/26 03:54:47;;;;;;;14.55;7.45;;;;;;;13.56;100.00;102186.34;4909030;29;20047;-79
2023/09/26 03:57:15;;;;;;;9.52;7.10;;;;;;;13.52;100.00;102187.19;4878485;29;24041;-79
2023/09/26 03:59:42;;;;;;;9.43;7.53;;;;;;;13.48;100.00;102183.59;4949259;28;20047;-78
2023/09/26 04:02:09;;;;;;;8.82;7.93;;;;;;;13.45;100.00;102186.19;4894140;29;20048;-79
2023/09/26 04:04:37;;;;;;;7.80;7.00;;;;;;;13.40;100.00;102185.22;4921529;29;20960;-79
2023/09/26 04:07:06;;;;;;;9.13;7.68;;;;;;;13.36;100.00;102186.06;4897546;29;20052;-79
2023/09/26 04:09:35;;;;;;;11.13;7.55;;;;;;;13.32;100.00;102179.84;4927167;29;20801;-79
2023/09/26 04:12:03;;;;;;;9.20;7.68;;;;;;;13.30;100.00;102178.94;4937368;28;20502;-78
2023/09/26 04:14:31;;;;;;;10.13;8.77;;;;;;;13.26;100.00;102177.97;4910172;28;20062;-79
2023/09/26 04:17:00;;;;;;;8.43;7.55;;;;;;;13.24;100.00;102170.88;4925727;29;20048;-79
2023/09/26 04:19:27;;;;;;;11.75;8.07;;;;;;;13.20;100.00;102183.19;4915805;29;20841;-79
2023/09/26 04:21:55;;;;;;;13.32;8.00;;;;;;;13.19;100.00;102177.88;4899339;29;20056;-78
2023/09/26 04:24:22;;;;;;;10.88;8.32;;;;;;;13.16;100.00;102180.50;4918771;29;20047;-79
2023/09/26 04:26:49;;;;;;;9.35;8.40;;;;;;;13.14;100.00;102175.16;4904111;29;20062;-79
2023/09/26 04:29:17;;;;;;;8.88;8.07;;;;;;;13.11;100.00;102166.31;4870476;29;20083;-78
2023/09/26 04:31:44;;;;;;;10.20;7.60;;;;;;;13.08;100.00;102167.16;4921987;29;20047;-78
2023/09/26 04:34:12;;;;;;;9.50;7.72;;;;;;;13.07;100.00;102175.94;4908814;29;20060;-79
2023/09/26 04:36:40;;;;;;;11.98;7.40;;;;;;;13.05;100.00;102172.41;4896294;29;20052;-79
2023/09/26 04:39:08;;;;;;;8.45;7.53;;;;;;;13.01;100.00;102174.09;4909183;29;20114;-78
2023/09/26 04:41:36;;;;;;;12.30;9.70;;;;;;;13.00;100.00;102176.72;4930709;29;20059;-78
2023/09/26 04:44:04;;;;;;;11.05;8.63;;;;;;;12.99;100.00;102172.31;4874125;29;20061;-78
2023/09/26 04:46:33;;;;;;;13.18;7.80;;;;;;;12.98;100.00;102175.81;4918776;29;20062;-78
2023/09/26 04:49:01;;;;;;;13.65;7.63;;;;;;;12.97;100.00;102174.06;4912647;29;20144;-78
2023/09/26 04:51:28;;;;;;;15.00;11.38;;;;;;;12.95;100.00;102170.47;4893771;29;20407;-78
2023/09/26 04:53:58;;;;;;;13.57;8.70;;;;;;;12.92;100.00;102168.69;4910130;29;20067;-78
2023/09/26 04:56:25;;;;;;;16.80;8.63;;;;;;;12.92;100.00;102175.72;4914637;29;20626;-78
2023/09/26 04:58:53;;;;;;;12.48;7.38;;;;;;;12.90;100.00;102172.19;4908296;29;20085;-79
2023/09/26 05:01:24;;;;;;;13.05;7.18;;;;;;;12.87;100.00;102176.56;4886936;29;20063;-79
2023/09/26 05:03:52;;;;;;;10.25;7.13;;;;;;;12.86;100.00;102176.53;4939145;29;20043;-79
2023/09/26 05:06:20;;;;;;;15.05;7.68;;;;;;;12.83;100.00;102177.34;4915163;29;20051;-79
2023/09/26 05:08:48;;;;;;;10.68;7.68;;;;;;;12.82;100.00;102172.94;4928247;29;20052;-79
2023/09/26 05:11:16;;;;;;;12.18;8.32;;;;;;;12.82;100.00;102180.00;4907661;29;20054;-79
2023/09/26 05:13:44;;;;;;;11.38;7.45;;;;;;;12.80;100.00;102166.75;4926957;29;20055;-79
2023/09/26 05:16:14;;;;;;;13.25;7.50;;;;;;;12.81;100.00;102175.56;4918872;28;20051;-78
2023/09/26 05:18:41;;;;;;;9.97;7.60;;;;;;;12.82;100.00;102180.00;4930564;28;20786;-79
2023/09/26 05:21:09;;;;;;;9.70;7.28;;;;;;;12.81;100.00;102187.03;4939177;29;20051;-79
2023/09/26 05:23:37;;;;;;;11.80;8.18;;;;;;;12.80;100.00;102182.63;4897439;29;20051;-79
2023/09/26 05:26:09;;;;;;;14.82;7.50;;;;;;;12.80;100.00;102190.56;4928958;29;20051;-79
2023/09/26 05:28:37;;;;;;;17.60;7.85;;;;;;;12.79;100.00;102179.94;4913362;29;20474;-80
2023/09/26 05:31:05;;;;;;;10.18;7.22;;;;;;;12.79;100.00;102185.22;4934112;29;20403;-79
2023/09/26 05:33:34;;;;;;;7.78;6.63;;;;;;;12.79;100.00;102182.59;4890510;28;20067;-81
2023/09/26 05:36:04;;;;;;;14.00;7.93;;;;;;;12.78;100.00;102171.13;4928091;28;20054;-79
2023/09/26 05:38:32;;;;;;;10.15;7.82;;;;;;;12.77;100.00;102163.16;4888764;29;20074;-79
2023/09/26 05:40:59;;;;;;;12.27;8.68;;;;;;;12.78;100.00;102164.94;4926109;29;20051;-79
2023/09/26 05:43:29;;;;;;;9.02;7.45;;;;;;;12.78;100.00;102172.84;4910827;28;20649;-79
2023/09/26 05:45:57;;;;;;;13.95;7.95;;;;;;;12.79;100.00;102174.66;4926480;29;20055;-79
2023/09/26 05:48:24;;;;;;;11.43;8.02;;;;;;;12.79;100.00;102159.66;4913565;28;20111;-79
2023/09/26 05:50:59;;;;;;;8.35;7.45;;;;;;;12.80;100.00;102172.03;4936446;29;20043;-79
2023/09/26 05:53:27;;;;;;;15.02;7.78;;;;;;;12.82;100.00;102174.72;4941151;28;20039;-79
2023/09/26 05:55:56;;;;;;;19.30;7.85;;;;;;;12.82;100.00;102180.00;4930165;29;20058;-79
2023/09/26 05:58:24;;;;;;;38.28;8.65;;;;;;;12.83;100.00;102187.94;4953271;28;20047;-79
2023/09/26 06:00:53;;;;;;;9.43;6.95;;;;;;;12.83;100.00;102182.66;4925556;28;20047;-79
2023/09/26 06:03:20;;;;;;;8.95;7.82;;;;;;;12.84;100.00;102180.91;4923495;28;20498;-79
2023/09/26 06:05:50;;;;;;;13.80;7.60;;;;;;;12.84;100.00;102178.28;4946822;28;20062;-79
2023/09/26 06:08:18;;;;;;;15.05;7.93;;;;;;;12.85;100.00;102180.94;4932901;29;20043;-79
2023/09/26 06:10:52;;;;;;;12.50;7.80;;;;;;;12.86;100.00;102177.41;4912158;29;20521;-79
2023/09/26 06:13:20;;;;;;;8.82;7.28;;;;;;;12.89;100.00;102173.91;4936287;28;20050;-79
2023/09/26 06:15:48;;;;;;;11.00;7.95;;;;;;;12.94;100.00;102180.16;4937128;28;20062;-80
2023/09/26 06:18:15;;;;;;;10.52;7.50;;;;;;;12.99;100.00;102177.59;4879617;29;20055;-79
2023/09/26 06:20:44;;;;;;;14.73;7.78;;;;;;;13.02;100.00;102173.25;4895848;29;20067;-79
2023/09/26 06:23:12;;;;;;;22.02;8.48;;;;;;;13.07;100.00;102171.53;4931031;28;20062;-79
2023/09/26 06:25:40;;;;;;;12.55;7.35;;;;;;;13.11;100.00;102164.53;4956233;28;20055;-80
2023/09/26 06:28:21;;;;;;;13.57;7.55;;;;;;;13.14;100.00;102167.22;4962481;28;20047;-79
2023/09/26 06:30:49;;;;;;;8.80;7.47;;;;;;;13.18;100.00;102174.34;4910363;29;20043;-79
2023/09/26 06:33:16;;;;;;;12.52;7.18;;;;;;;13.23;100.00;102177.94;4881231;29;21804;-80
2023/09/26 06:35:44;;;;;;;9.65;7.10;;;;;;;13.29;100.00;102173.59;4954088;28;20042;-80
2023/09/26 06:38:11;;;;;;;12.18;6.97;;;;;;;13.33;100.00;102172.81;4916996;29;20044;-81
2023/09/26 06:40:39;;;;;;;9.68;6.80;;;;;;;13.41;100.00;102187.03;4925493;28;20054;-80
2023/09/26 06:43:07;;;;;;;11.43;7.43;;;;;;;13.48;100.00;102193.28;4929382;29;20080;-80
2023/09/26 06:45:38;;;;;;;12.27;7.07;;;;;;;13.56;100.00;102178.38;4934015;29;20058;-80
2023/09/26 06:48:06;;;;;;;16.20;7.63;;;;;;;13.64;100.00;102182.88;4927762;29;20070;-80
2023/09/26 06:50:34;;;;;;;11.57;7.45;;;;;;;13.76;100.00;102176.88;4895732;29;20071;-80
2023/09/26 06:53:02;;;;;;;11.95;7.53;;;;;;;13.93;100.00;102176.13;4944031;29;20043;-79
2023/09/26 06:55:30;;;;;;;12.60;7.55;;;;;;;14.02;100.00;102173.59;4949671;28;20058;-80
2023/09/26 06:57:57;;;;;;;9.38;7.38;;;;;;;14.10;100.00;102176.31;4908795;29;20044;-79
2023/09/26 07:00:25;;;;;;;9.85;8.10;;;;;;;14.18;100.00;102188.78;4918146;29;20048;-80
2023/09/26 07:02:52;;;;;;;9.15;7.38;;;;;;;14.30;100.00;102197.72;4920366;29;20119;-79
2023/09/26 07:05:20;;;;;;;9.50;7.70;;;;;;;14.38;100.00;102183.63;4860467;29;20043;-80
2023/09/26 07:07:48;;;;;;;8.80;7.57;;;;;;;14.47;100.00;102184.63;4925284;29;20120;-80
2023/09/26 07:10:15;;;;;;;8.52;7.70;;;;;;;14.60;100.00;102183.88;4906745;29;20462;-80
2023/09/26 07:12:44;;;;;;;12.18;7.55;;;;;;;14.74;100.00;102184.84;4956492;28;20059;-79
2023/09/26 07:15:12;;;;;;;11.13;7.70;;;;;;;14.89;100.00;102188.50;4914977;29;23357;-79
2023/09/26 07:17:40;;;;;;;11.93;6.80;;;;;;;15.02;100.00;102190.34;4889313;29;20429;-79
2023/09/26 07:20:13;;;;;;;10.90;7.30;;;;;;;15.23;100.00;102191.34;4893712;29;20060;-80
2023/09/26 07:22:41;;;;;;;7.85;6.60;;;;;;;15.46;100.00;102183.50;4898738;29;20101;-80
2023/09/26 07:25:10;;;;;;;7.53;6.78;;;;;;;15.65;100.00;102192.41;4934487;29;20062;-80
2023/09/26 07:27:38;;;;;;;8.48;6.70;;;;;;;15.88;100.00;102188.09;4960439;28;20055;-80
2023/09/26 07:30:07;;;;;;;10.10;7.10;;;;;;;16.13;100.00;102188.16;4941251;29;20047;-80
2023/09/26 07:32:35;;;;;;;11.38;6.43;;;;;;;16.30;100.00;102178.41;4931375;28;20049;-80
2023/09/26 07:35:03;;;;;;;7.18;6.13;;;;;;;16.48;100.00;102171.31;4949267;28;20047;-80
2023/09/26 07:37:32;;;;;;;8.20;6.30;;;;;;;16.56;100.00;102166.91;4881131;29;20052;-80
2023/09/26 07:40:03;;;;;;;7.13;5.88;;;;;;;16.64;100.00;102162.44;4947262;29;20062;-80
2023/09/26 07:42:30;;;;;;;7.10;5.90;;;;;;;16.82;100.00;102166.88;4936194;29;20055;-80
2023/09/26 07:45:00;;;;;;;7.45;6.43;;;;;;;17.03;100.00;102171.28;4931993;28;20047;-79
2023/09/26 07:47:28;;;;;;;7.45;6.53;;;;;;;17.17;100.00;102170.38;4914267;29;20059;-79
2023/09/26 07:49:55;;;;;;;7.07;6.32;;;;;;;17.24;100.00;102169.44;4908592;29;20066;-79
2023/09/26 07:52:26;;;;;;;9.43;6.75;;;;;;;17.22;100.00;102161.47;4855656;29;20043;-79
2023/09/26 07:54:54;;;;;;;8.60;6.68;;;;;;;17.19;100.00;102164.13;4923602;29;20505;-79
2023/09/26 07:57:21;;;;;;;12.52;7.75;;;;;;;17.12;100.00;102160.59;4928795;29;20070;-79
2023/09/26 07:59:49;;;;;;;8.98;6.28;;;;;;;17.12;100.00;102163.25;4942949;28;20058;-79
2023/09/26 08:02:18;;;;;;;7.85;5.78;;;;;;;17.13;100.00;102165.03;4910562;29;20052;-79
2023/09/26 08:04:46;;;;;;;7.28;5.72;;;;;;;17.19;100.00;102169.47;4907873;29;20427;-79
2023/09/26 08:07:13;;;;;;;7.90;5.45;;;;;;;17.26;100.00;102168.56;4940551;29;20058;-79
2023/09/26 08:09:41;;;;;;;8.32;6.22;;;;;;;17.38;100.00;102182.72;4860702;29;20051;-79
2023/09/26 08:12:08;;;;;;;9.77;6.57;;;;;;;17.56;100.00;102179.06;4913762;29;20059;-79
2023/09/26 08:14:36;;;;;;;12.07;6.40;;;;;;;17.73;100.00;102170.13;4937383;29;20419;-79
2023/09/26 08:17:03;;;;;;;7.78;6.28;;;;;;;17.89;100.00;102168.28;4943459;29;20418;-79
2023/09/26 08:19:31;;;;;;;6.72;6.03;;;;;;;18.01;100.00;102163.75;4925194;29;20059;-80
2023/09/26 08:21:58;;;;;;;11.50;6.15;;;;;;;18.09;100.00;102151.22;4919660;29;20506;-79
2023/09/26 08:24:26;;;;;;;11.35;6.88;;;;;;;18.14;100.00;102149.44;4866776;29;20039;-81
2023/09/26 08:26:54;;;;;;;11.65;6.50;;;;;;;18.23;100.00;102149.34;4929470;29;20043;-79
2023/09/26 08:29:21;;;;;;;9.77;6.93;;;;;;;18.36;100.00;102159.94;4927725;29;20067;-79
2023/09/26 08:31:49;;;;;;;11.75;6.68;;;;;;;18.43;100.00;102166.97;4886243;29;20047;-79
2023/09/26 08:34:17;;;;;;;8.30;5.95;;;;;;;18.49;100.00;102162.50;4927789;29;20051;-79
2023/09/26 08:36:46;;;;;;;8.02;5.80;;;;;;;18.49;100.00;102162.50;4917796;29;20418;-79
2023/09/26 08:39:14;;;;;;;8.77;6.70;;;;;;;18.45;100.00;102155.41;4900899;28;20055;-79
2023/09/26 08:41:46;;;;;;;9.88;6.43;;;;;;;18.42;100.00;102150.09;4893098;29;20059;-78
2023/09/26 08:44:14;;;;;;;10.10;6.15;;;;;;;18.38;100.00;102142.13;4943197;29;20422;-78
2023/09/26 08:46:44;;;;;;;7.88;6.15;;;;;;;18.34;100.00;102143.94;4893080;29;20051;-79
2023/09/26 08:49:12;;;;;;;8.45;6.95;;;;;;;18.29;100.00;102141.28;4912792;29;20059;-80
2023/09/26 08:51:40;;;;;;;10.10;6.93;;;;;;;18.29;100.00;102149.31;4901584;29;20495;-79
2023/09/26 08:54:07;;;;;;;6.55;5.18;;;;;;;18.30;100.00;102151.09;4913722;29;20048;-79
2023/09/26 08:56:36;;;;;;;6.50;5.90;;;;;;;18.31;100.00;102141.28;4873527;29;20074;-80
2023/09/26 08:59:06;;;;;;;8.90;6.43;;;;;;;18.26;100.00;102145.78;4917329;29;20418;-80
2023/09/26 09:01:34;;;;;;;9.60;6.22;;;;;;;18.20;100.00;102153.84;4930251;29;20074;-80
2023/09/26 09:04:02;;;;;;;10.10;6.20;;;;;;;18.18;100.00;102155.63;4931962;29;20399;-80
2023/09/26 09:06:29;;;;;;;7.80;5.90;;;;;;;18.19;100.00;102147.63;4938790;28;20414;-80
2023/09/26 09:09:10;;;;;;;6.35;5.53;;;;;;;18.25;100.00;102158.25;4936424;28;20053;-79
2023/09/26 09:11:37;;;;;;;9.85;6.40;;;;;;;18.28;100.00;102139.53;4902690;28;20066;-80
2023/09/26 09:14:06;;;;;;;7.93;5.85;;;;;;;18.26;100.00;102144.00;4945179;28;20067;-79
2023/09/26 09:16:33;;;;;;;8.18;6.55;;;;;;;18.25;100.00;102144.91;4937435;28;20051;-80
2023/09/26 09:19:01;;;;;;;11.68;6.60;;;;;;;18.25;100.00;102136.00;4931517;29;20062;-79
2023/09/26 09:21:33;;;;;;;10.73;6.05;;;;;;;18.25;100.00;102136.00;4928768;29;20418;-80
2023/09/26 09:24:07;;;;;;;9.35;6.05;;;;;;;18.28;100.00;102136.00;4930630;29;20043;-79
2023/09/26 09:26:36;;;;;;;8.23;6.57;;;;;;;18.33;100.00;102139.50;4888357;29;20055;-80
2023/09/26 09:29:33;;;;;;;8.82;6.88;;;;;;;18.36;100.00;102134.13;4946946;29;20055;-79
2023/09/26 09:32:00;;;;;;;11.95;6.45;;;;;;;18.39;100.00;102122.53;4929086;28;20062;-80
2023/09/26 09:34:28;;;;;;;14.30;6.35;;;;;;;18.44;100.00;102116.25;4905862;29;20062;-80
2023/09/26 09:36:59;;;;;;;8.55;5.60;;;;;;;18.55;100.00;102107.28;4922466;28;20579;-80
2023/09/26 09:39:26;;;;;;;7.13;4.82;;;;;;;18.64;100.00;102102.72;4903164;29;20048;-80
2023/09/26 09:42:01;;;;;;;10.13;6.57;;;;;;;18.73;100.00;102100.84;4899456;28;20584;-80
2023/09/26 09:44:30;;;;;;;7.78;6.63;;;;;;;18.72;100.00;102099.97;4944256;29;20062;-80
2023/09/26 09:47:02;;;;;;;11.48;6.28;;;;;;;18.71;100.00;102095.53;4914414;29;20066;-79
2023/09/26 09:49:39;;;;;;;8.75;5.70;;;;;;;18.76;100.00;102093.69;4962351;28;20059;-80
2023/09/26 09:52:10;;;;;;;8.60;6.00;;;;;;;18.84;100.00;102105.19;4946729;29;20062;-80
2023/09/26 09:54:42;;;;;;;11.05;4.95;;;;;;;18.87;100.00;102113.19;4955487;28;20051;-80
2023/09/26 09:57:10;;;;;;;5.20;4.72;;;;;;;18.87;100.00;102120.31;4896307;29;20059;-79
2023/09/26 09:59:38;;;;;;;4.97;4.47;;;;;;;18.92;100.00;102105.09;4913692;29;20060;-80
2023/09/26 10:02:05;;;;;;;5.97;4.80;;;;;;;19.08;100.00;102104.03;4928660;28;20052;-80
2023/09/26 10:04:37;;;;;;;5.80;4.60;;;;;;;19.27;100.00;102095.78;4925638;29;20051;-80
2023/09/26 10:07:06;;;;;;;6.93;4.47;;;;;;;19.43;100.00;102094.69;4888403;29;20052;-80
2023/09/26 10:09:35;;;;;;;5.28;4.53;;;;;;;19.54;100.00;102086.50;4901017;29;20043;-80
2023/09/26 10:12:02;;;;;;;4.95;4.35;;;;;;;19.65;100.00;102094.38;4929772;29;20052;-80
2023/09/26 10:14:31;;;;;;;5.80;4.32;;;;;;;19.64;100.00;102101.53;4889744;29;20453;-79
2023/09/26 10:17:04;;;;;;;4.68;4.28;;;;;;;19.63;100.00;102085.50;4930054;29;20055;-80
2023/09/26 10:19:34;;;;;;;8.93;3.88;;;;;;;19.63;100.00;102093.50;4933215;29;20052;-80
2023/09/26 10:22:21;;;;;;;6.50;4.22;;;;;;;19.65;100.00;102097.03;4924529;29;20071;-80
2023/09/26 10:24:52;;;;;;;5.57;4.78;;;;;;;19.64;100.00;102087.25;4919088;28;20799;-80
2023/09/26 10:27:36;;;;;;;6.20;4.57;;;;;;;19.70;100.00;102081.81;4918961;29;20055;-80
2023/09/26 10:30:26;;;;;;;5.30;4.80;;;;;;;19.75;100.00;102089.78;4937844;29;20575;-80
2023/09/26 10:32:54;;;;;;;5.82;4.35;;;;;;;19.78;100.00;102087.09;4945106;29;20054;-79
2023/09/26 10:35:23;;;;;;;6.60;5.28;;;;;;;19.83;100.00;102075.41;4941566;29;20419;-80
2023/09/26 10:38:23;;;;;;;5.15;4.40;;;;;;;19.87;100.00;102073.56;4918602;29;20051;-79
2023/09/26 10:40:51;;;;;;;7.63;4.85;;;;;;;19.88;100.00;102075.31;4914156;29;20078;-80
2023/09/26 10:43:18;;;;;;;5.07;4.18;;;;;;;19.89;100.00;102060.19;4901612;29;20059;-80
2023/09/26 10:45:49;;;;;;;;;;;;;;;19.86;100.00;102069.13;4873571;29;20055;-80
2023/09/26 10:48:19;;;;;;;6.90;4.70;;;;;;;19.84;100.00;102053.09;4934112;29;19938;-80
2023/09/26 10:50:47;;;;;;;6.00;4.05;;;;;;;19.84;100.00;102058.44;4908258;29;20055;-80
2023/09/26 10:53:15;;;;;;;5.95;4.32;;;;;;;19.91;100.00;102058.34;4908064;29;20124;-79
2023/09/26 10:55:43;;;;;;;5.32;4.53;;;;;;;19.97;100.00;102063.59;4876520;29;20059;-80
2023/09/26 10:58:19;;;;;;;5.50;4.18;;;;;;;19.99;100.00;102064.44;4928731;29;20059;-80
2023/09/26 11:00:51;;;;;;;6.65;3.55;;;;;;;19.98;100.00;102060.91;4925037;28;20190;-80
2023/09/26 11:03:19;;;;;;;6.65;4.45;;;;;;;19.93;100.00;102061.88;4916736;29;20058;-80
2023/09/26 11:05:47;;;;;;;5.63;3.78;;;;;;;19.97;100.00;102055.56;4915228;29;20046;-80
2023/09/26 11:08:15;;;;;;;5.35;4.38;;;;;;;20.01;100.00;102059.97;4933678;29;20047;-80
2023/09/26 11:11:02;;;;;;;4.05;3.40;;;;;;;20.05;100.00;102069.69;4900030;29;20055;-80
2023/09/26 11:13:30;;;;;;;4.93;3.40;;;;;;;20.06;100.00;102058.09;4946340;29;20051;-80
2023/09/26 11:15:58;;;;;;;5.38;3.30;;;;;;;20.10;100.00;102056.25;4921292;28;20055;-80
2023/09/26 11:18:26;;;;;;;4.15;3.33;;;;;;;20.11;100.00;102061.56;4963004;28;20058;-80
2023/09/26 11:20:53;;;;;;;5.07;4.30;;;;;;;20.14;100.00;102056.16;4936678;29;20044;-79
2023/09/26 11:23:39;;;;;;;5.78;4.45;;;;;;;20.15;100.00;102052.59;4916367;29;20051;-79